Terminal Aerodrome Forecast
Issued by NWS

Home | Current Version | Previous Version | Text Only | Print | Product List | Glossary On
Versions: 1 2 3 4 5 6 7 8 9 10 11 12 13
000
FTUS43 KDMX 250535
TAFOTM
TAF
KOTM 250535Z 2506/2606 34011KT P6SM SKC
     FM251400 04009KT P6SM BKN190=

USA.gov is the U.S. government's official web portal to all federal, state and local government web resources and services.